createdAt,value
2018-03-27T00:00:14.968Z,54.30
2018-03-27T00:02:42.417Z,54.30
2018-03-27T00:05:15.769Z,54.30
2018-03-27T00:07:43.173Z,54.10
2018-03-27T00:10:10.651Z,53.80
2018-03-27T00:12:38.104Z,54.10
2018-03-27T00:15:05.593Z,54.30
2018-03-27T00:17:33.116Z,54.20
2018-03-27T00:20:00.590Z,54.10
2018-03-27T00:22:28.834Z,54.30
2018-03-27T00:24:56.316Z,54.30
2018-03-27T00:27:35.536Z,54.40
2018-03-27T00:30:15.084Z,54.70
2018-03-27T00:32:54.421Z,54.80
2018-03-27T00:35:33.845Z,55.00
2018-03-27T00:38:13.301Z,55.00
2018-03-27T00:40:42.876Z,56.10
2018-03-27T00:43:13.840Z,55.40
2018-03-27T00:45:42.466Z,55.90
2018-03-27T00:48:09.940Z,55.80
2018-03-27T00:50:37.405Z,56.20
2018-03-27T00:53:04.862Z,56.00
2018-03-27T00:55:32.345Z,56.10
2018-03-27T00:57:59.826Z,55.20
2018-03-27T01:00:28.069Z,55.00
2018-03-27T01:02:55.534Z,54.90
2018-03-27T01:05:23.008Z,55.00
2018-03-27T01:07:51.233Z,54.70
2018-03-27T01:10:18.749Z,54.70
2018-03-27T01:12:46.283Z,54.80
2018-03-27T01:15:13.765Z,54.90
2018-03-27T01:17:42.003Z,55.20
2018-03-27T01:20:09.477Z,55.20
2018-03-27T01:22:37.037Z,55.00
2018-03-27T01:25:04.512Z,55.40
2018-03-27T01:27:32.757Z,55.20
2018-03-27T01:30:00.237Z,55.10
2018-03-27T01:32:28.457Z,55.00
2018-03-27T01:34:55.930Z,55.00
2018-03-27T01:37:23.402Z,55.30
2018-03-27T01:39:50.876Z,55.50
2018-03-27T01:42:18.336Z,55.50
2018-03-27T01:44:45.804Z,55.50
2018-03-27T01:47:14.048Z,55.20
2018-03-27T01:49:41.625Z,55.20
2018-03-27T01:52:09.093Z,55.40
2018-03-27T01:54:37.379Z,55.90
2018-03-27T01:57:05.634Z,56.10
2018-03-27T01:59:33.095Z,56.00
2018-03-27T02:02:01.341Z,55.40
2018-03-27T02:04:28.798Z,55.80
2018-03-27T02:06:56.278Z,56.10
2018-03-27T02:09:23.732Z,56.10
2018-03-27T02:11:56.823Z,56.10
2018-03-27T02:14:30.073Z,56.10
2018-03-27T02:17:03.388Z,56.00
2018-03-27T02:19:36.683Z,56.10
2018-03-27T02:22:03.693Z,56.20
2018-03-27T02:24:34.615Z,56.50
2018-03-27T02:27:02.241Z,56.50
2018-03-27T02:29:29.746Z,56.70
2018-03-27T02:31:57.218Z,56.70
2018-03-27T02:34:24.680Z,56.50
2018-03-27T02:36:52.181Z,56.70
2018-03-27T02:39:19.744Z,56.60
2018-03-27T02:41:47.994Z,56.80
2018-03-27T02:44:15.457Z,56.70
2018-03-27T02:46:44.453Z,57.20
2018-03-27T02:49:12.020Z,57.20
2018-03-27T02:51:39.499Z,57.40
2018-03-27T02:54:07.728Z,57.40
2018-03-27T02:56:35.212Z,57.40
2018-03-27T02:59:02.689Z,57.70
2018-03-27T03:01:30.934Z,57.90
2018-03-27T03:03:58.398Z,57.90
2018-03-27T03:06:25.868Z,57.70
2018-03-27T03:08:54.108Z,58.80
2018-03-27T03:11:21.593Z,58.80
2018-03-27T03:13:49.064Z,59.40
2018-03-27T03:16:17.292Z,59.30
2018-03-27T03:18:44.753Z,59.90
2018-03-27T03:21:12.228Z,59.30
2018-03-27T03:23:39.794Z,59.30
2018-03-27T03:26:07.273Z,59.10
2018-03-27T03:28:35.496Z,59.40
2018-03-27T03:31:02.977Z,59.30
2018-03-27T03:33:30.546Z,59.30
2018-03-27T03:35:58.036Z,59.50
2018-03-27T03:38:25.502Z,59.80
2018-03-27T03:40:52.993Z,59.80
2018-03-27T03:43:21.361Z,59.40
2018-03-27T03:45:48.878Z,59.80
2018-03-27T03:48:16.409Z,60.30
2018-03-27T03:50:43.987Z,60.80
2018-03-27T03:53:12.224Z,60.50
2018-03-27T03:55:39.690Z,60.40
2018-03-27T03:58:07.156Z,59.90
2018-03-27T04:00:34.639Z,59.90
2018-03-27T04:03:02.865Z,60.40
2018-03-27T04:05:30.348Z,60.40
2018-03-27T04:07:58.606Z,61.40
2018-03-27T04:10:26.100Z,61.00
2018-03-27T04:12:54.329Z,61.00
2018-03-27T04:15:21.817Z,61.00
2018-03-27T04:17:49.308Z,61.30
2018-03-27T04:20:16.780Z,61.30
2018-03-27T04:22:44.253Z,61.50
2018-03-27T04:25:11.729Z,61.40
2018-03-27T04:27:39.212Z,61.30
2018-03-27T04:30:07.457Z,61.70
2018-03-27T04:32:35.188Z,61.60
2018-03-27T04:35:02.741Z,61.80
2018-03-27T04:37:30.224Z,61.40
2018-03-27T04:39:57.713Z,61.80
2018-03-27T04:42:26.826Z,62.20
2018-03-27T04:44:55.039Z,63.20
2018-03-27T04:47:22.570Z,62.40
2018-03-27T04:49:50.807Z,63.50
2018-03-27T04:52:18.374Z,63.40
2018-03-27T04:54:45.836Z,63.50
2018-03-27T04:57:13.320Z,64.00
2018-03-27T04:59:40.794Z,64.60
2018-03-27T05:02:08.265Z,63.80
2018-03-27T05:04:35.772Z,63.40
2018-03-27T05:07:04.020Z,64.50
2018-03-27T05:09:31.484Z,63.80
2018-03-27T05:11:58.996Z,63.50
2018-03-27T05:14:26.476Z,63.90
2018-03-27T05:16:53.945Z,63.80
2018-03-27T05:19:21.471Z,64.00
2018-03-27T05:21:48.956Z,64.40
2018-03-27T05:24:16.426Z,64.50
2018-03-27T05:26:43.915Z,64.50
2018-03-27T05:29:12.144Z,64.80
2018-03-27T05:31:39.637Z,64.60
2018-03-27T05:34:07.127Z,64.60
2018-03-27T05:36:34.638Z,64.50
2018-03-27T05:39:03.150Z,64.40
2018-03-27T05:41:31.396Z,64.30
2018-03-27T05:43:58.865Z,64.30
2018-03-27T05:46:26.334Z,64.60
2018-03-27T05:48:54.863Z,65.20
2018-03-27T05:51:22.363Z,65.20
2018-03-27T05:53:49.978Z,64.90
2018-03-27T05:56:17.742Z,65.50
2018-03-27T05:58:45.391Z,65.00
2018-03-27T06:01:12.997Z,65.40
2018-03-27T06:03:41.645Z,65.50
2018-03-27T06:06:09.912Z,66.00
2018-03-27T06:08:37.414Z,65.20
2018-03-27T06:11:04.914Z,65.00
2018-03-27T06:13:32.388Z,64.40
2018-03-27T06:15:59.865Z,63.50
2018-03-27T06:18:27.388Z,64.10
2018-03-27T06:20:54.945Z,64.00
2018-03-27T06:23:22.928Z,64.00
2018-03-27T06:25:50.542Z,64.00
2018-03-27T06:28:18.340Z,64.00
2018-03-27T06:30:46.029Z,63.50
2018-03-27T06:33:13.521Z,63.70
2018-03-27T06:35:41.223Z,63.60
2018-03-27T06:38:08.698Z,63.80
2018-03-27T06:40:36.924Z,63.00
2018-03-27T06:43:04.458Z,63.00
2018-03-27T06:45:32.021Z,63.40
2018-03-27T06:47:59.485Z,63.30
2018-03-27T06:50:26.982Z,63.50
2018-03-27T06:52:54.493Z,63.00
2018-03-27T06:55:22.044Z,62.80
2018-03-27T06:57:49.525Z,62.60
2018-03-27T07:00:16.992Z,62.50
2018-03-27T07:02:44.474Z,62.50
2018-03-27T07:05:12.727Z,62.90
2018-03-27T07:07:40.211Z,62.80
2018-03-27T07:10:07.722Z,62.40
2018-03-27T07:12:36.088Z,62.50
2018-03-27T07:15:03.623Z,62.50
2018-03-27T07:17:31.120Z,62.50
2018-03-27T07:19:58.600Z,62.70
2018-03-27T07:22:26.224Z,62.50
2018-03-27T07:24:55.216Z,61.80
2018-03-27T07:27:22.696Z,61.80
2018-03-27T07:29:50.937Z,62.20
2018-03-27T07:32:18.396Z,62.30
2018-03-27T07:34:45.896Z,62.20
2018-03-27T07:37:13.388Z,62.30
2018-03-27T07:39:42.818Z,62.60
2018-03-27T07:42:11.067Z,62.50
2018-03-27T07:44:38.617Z,62.40
2018-03-27T07:47:06.086Z,61.80
2018-03-27T07:49:33.587Z,62.00
2018-03-27T07:52:01.058Z,61.90
2018-03-27T07:54:28.554Z,61.70
2018-03-27T07:56:56.844Z,60.90
2018-03-27T07:59:24.430Z,60.90
2018-03-27T08:01:52.875Z,60.50
2018-03-27T08:04:20.365Z,59.90
2018-03-27T08:06:47.930Z,60.20
2018-03-27T08:09:15.424Z,60.40
2018-03-27T08:11:42.884Z,60.10
2018-03-27T08:14:10.370Z,60.10
2018-03-27T08:16:38.622Z,60.60
2018-03-27T08:19:06.108Z,60.50
2018-03-27T08:21:34.338Z,60.70
2018-03-27T08:24:01.945Z,61.40
2018-03-27T08:26:29.377Z,60.50
2018-03-27T08:28:56.834Z,60.10
2018-03-27T08:31:24.316Z,60.00
2018-03-27T08:33:52.536Z,59.30
2018-03-27T08:36:20.040Z,59.30
2018-03-27T08:38:47.540Z,59.20
2018-03-27T08:41:15.044Z,58.90
2018-03-27T08:43:42.530Z,58.80
2018-03-27T08:46:10.608Z,59.00
2018-03-27T08:48:38.182Z,58.80
2018-03-27T08:51:05.658Z,58.50
2018-03-27T08:53:33.129Z,58.60
2018-03-27T08:56:00.652Z,57.90
2018-03-27T08:58:28.181Z,57.80
2018-03-27T09:00:56.413Z,56.70
2018-03-27T09:03:23.943Z,56.60
2018-03-27T09:05:51.397Z,56.50
2018-03-27T09:08:18.884Z,55.90
2018-03-27T09:10:46.341Z,55.30
2018-03-27T09:13:13.829Z,55.40
2018-03-27T09:15:41.318Z,55.40
2018-03-27T09:18:08.796Z,55.50
2018-03-27T09:20:36.263Z,54.40
2018-03-27T09:23:03.757Z,54.20
2018-03-27T09:25:31.217Z,53.90
2018-03-27T09:27:58.704Z,54.00
2018-03-27T09:30:26.165Z,53.60
2018-03-27T09:32:53.693Z,53.40
2018-03-27T09:35:22.008Z,53.30
2018-03-27T09:37:49.499Z,52.90
2018-03-27T09:40:16.990Z,52.90
2018-03-27T09:42:45.257Z,52.30
2018-03-27T09:45:12.808Z,52.30
2018-03-27T09:47:40.286Z,52.20
2018-03-27T09:50:08.569Z,50.90
2018-03-27T09:52:36.926Z,50.60
2018-03-27T09:55:04.398Z,50.60
2018-03-27T09:57:32.656Z,49.10
2018-03-27T10:00:00.133Z,49.00
2018-03-27T10:02:28.381Z,46.80
2018-03-27T10:04:55.845Z,46.80
2018-03-27T10:07:23.329Z,46.60
2018-03-27T10:09:51.584Z,46.40
2018-03-27T10:12:19.108Z,46.40
2018-03-27T10:14:46.579Z,46.60
2018-03-27T10:17:14.156Z,46.20
2018-03-27T10:19:41.638Z,45.60
2018-03-27T10:22:09.911Z,45.30
2018-03-27T10:24:38.141Z,45.60
2018-03-27T10:27:05.762Z,45.50
2018-03-27T10:29:33.225Z,45.70
2018-03-27T10:32:01.507Z,46.80
2018-03-27T10:34:29.033Z,46.80
2018-03-27T10:36:57.310Z,48.10
2018-03-27T10:39:24.843Z,48.00
2018-03-27T10:41:53.132Z,49.00
2018-03-27T10:44:21.729Z,49.40
2018-03-27T10:46:49.214Z,49.20
2018-03-27T10:49:16.725Z,49.60
2018-03-27T10:51:44.260Z,49.90
2018-03-27T10:54:11.717Z,50.10
2018-03-27T10:56:39.220Z,50.10
2018-03-27T10:59:06.716Z,50.10
2018-03-27T11:01:34.236Z,50.10
2018-03-27T11:04:02.604Z,50.30
2018-03-27T11:06:30.851Z,50.10
2018-03-27T11:08:58.340Z,50.10
2018-03-27T11:11:26.612Z,50.30
2018-03-27T11:13:54.869Z,50.40
2018-03-27T11:16:22.335Z,50.30
2018-03-27T11:18:49.818Z,50.80
2018-03-27T11:21:17.292Z,50.90
2018-03-27T11:23:44.813Z,50.90
2018-03-27T11:26:13.196Z,51.40
2018-03-27T11:28:41.469Z,52.20
2018-03-27T11:31:08.925Z,52.10
2018-03-27T11:33:36.589Z,52.50
2018-03-27T11:36:04.141Z,52.60
2018-03-27T11:38:31.621Z,52.60
2018-03-27T11:40:59.857Z,52.70
2018-03-27T11:43:27.365Z,52.70
2018-03-27T11:45:54.833Z,52.50
2018-03-27T11:48:22.327Z,52.20
2018-03-27T11:50:49.788Z,51.90
2018-03-27T11:53:17.272Z,51.60
2018-03-27T11:55:45.505Z,52.20
2018-03-27T11:58:12.991Z,52.00
2018-03-27T12:00:40.495Z,52.20
2018-03-27T12:03:08.925Z,51.50
2018-03-27T12:05:36.394Z,50.30
2018-03-27T12:08:03.896Z,49.50
2018-03-27T12:10:31.377Z,48.80
2018-03-27T12:12:58.870Z,48.50
2018-03-27T12:15:27.133Z,48.20
2018-03-27T12:17:54.613Z,48.20
2018-03-27T12:20:22.879Z,49.10
2018-03-27T12:22:51.137Z,49.00
2018-03-27T12:25:18.755Z,48.90
2018-03-27T12:27:46.233Z,48.80
2018-03-27T12:30:13.709Z,48.70
2018-03-27T12:32:41.189Z,48.30
2018-03-27T12:35:09.431Z,46.80
2018-03-27T12:37:36.900Z,46.80
2018-03-27T12:40:04.376Z,46.40
2018-03-27T12:42:32.613Z,45.70
2018-03-27T12:45:00.101Z,45.50
2018-03-27T12:47:28.389Z,46.40
2018-03-27T12:49:56.639Z,47.10
2018-03-27T12:52:24.108Z,46.90
2018-03-27T12:54:51.597Z,47.30
2018-03-27T12:57:19.128Z,47.50
2018-03-27T12:59:47.380Z,48.00
2018-03-27T13:02:14.855Z,47.90
2018-03-27T13:04:42.345Z,48.10
2018-03-27T13:07:09.821Z,47.90
2018-03-27T13:09:37.309Z,48.20
2018-03-27T13:12:04.781Z,48.10
2018-03-27T13:14:32.394Z,48.30
2018-03-27T13:16:59.882Z,48.60
2018-03-27T13:19:27.360Z,48.80
2018-03-27T13:21:54.930Z,49.10
2018-03-27T13:24:23.176Z,50.40
2018-03-27T13:26:50.649Z,50.40
2018-03-27T13:29:19.037Z,50.90
2018-03-27T13:31:47.287Z,52.30
2018-03-27T13:34:14.765Z,52.30
2018-03-27T13:36:42.231Z,52.20
2018-03-27T13:39:10.501Z,52.30
2018-03-27T13:41:37.974Z,51.60
2018-03-27T13:44:06.274Z,52.40
2018-03-27T13:46:33.799Z,52.30
2018-03-27T13:49:02.110Z,53.80
2018-03-27T13:51:29.596Z,53.10
2018-03-27T13:53:57.092Z,53.20
2018-03-27T13:56:24.652Z,54.10
2018-03-27T13:58:52.904Z,55.60
2018-03-27T14:01:20.378Z,55.60
2018-03-27T14:03:47.935Z,56.20
2018-03-27T14:06:15.424Z,58.00
2018-03-27T14:08:42.908Z,58.30
2018-03-27T14:11:10.410Z,59.90
2018-03-27T14:13:37.904Z,61.20
2018-03-27T14:16:05.430Z,61.90
2018-03-27T14:18:33.698Z,62.50
2018-03-27T14:21:01.258Z,62.30
2018-03-27T14:23:28.842Z,62.60
2018-03-27T14:25:56.329Z,64.00
2018-03-27T14:28:23.835Z,62.80
2018-03-27T14:30:51.323Z,63.50
2018-03-27T14:33:19.505Z,63.40
2018-03-27T14:35:47.003Z,62.10
2018-03-27T14:38:14.541Z,63.00
2018-03-27T14:40:42.000Z,63.40
2018-03-27T14:43:09.469Z,63.00
2018-03-27T14:45:36.957Z,62.90
2018-03-27T14:48:04.422Z,64.70
2018-03-27T14:50:32.690Z,63.80
2018-03-27T14:53:00.942Z,63.50
2018-03-27T14:55:29.274Z,63.40
2018-03-27T14:57:56.748Z,64.40
2018-03-27T15:00:24.761Z,63.30
2018-03-27T15:02:53.762Z,64.50
2018-03-27T15:05:22.012Z,65.00
2018-03-27T15:07:50.404Z,64.50
2018-03-27T15:10:18.238Z,64.40
2018-03-27T15:12:45.704Z,63.90
2018-03-27T15:15:13.234Z,64.00
2018-03-27T15:17:40.752Z,63.90
2018-03-27T15:20:08.229Z,64.20
2018-03-27T15:22:36.492Z,63.20
2018-03-27T15:25:05.461Z,62.60
2018-03-27T15:27:32.953Z,62.50
2018-03-27T15:30:01.203Z,59.40
2018-03-27T15:32:29.469Z,57.90
2018-03-27T15:34:57.995Z,57.90
2018-03-27T15:37:25.484Z,57.60
2018-03-27T15:39:53.783Z,57.20
2018-03-27T15:42:21.268Z,57.30
2018-03-27T15:44:48.742Z,56.90
2018-03-27T15:47:16.230Z,56.90
2018-03-27T15:49:44.465Z,59.10
2018-03-27T15:52:11.952Z,59.00
2018-03-27T15:54:39.408Z,59.30
2018-03-27T15:57:06.908Z,59.30
2018-03-27T15:59:34.376Z,59.60
2018-03-27T16:02:01.932Z,59.20
2018-03-27T16:04:29.378Z,59.50
2018-03-27T16:06:56.871Z,59.30
2018-03-27T16:09:24.457Z,59.70
2018-03-27T16:11:51.942Z,59.70
2018-03-27T16:14:19.415Z,60.00
2018-03-27T16:16:46.916Z,60.40
2018-03-27T16:19:14.429Z,59.00
2018-03-27T16:21:41.917Z,58.30
2018-03-27T16:24:09.385Z,58.10
2018-03-27T16:26:36.900Z,57.90
2018-03-27T16:29:04.369Z,58.90
2018-03-27T16:31:31.850Z,59.20
2018-03-27T16:33:59.335Z,59.60
2018-03-27T16:36:26.833Z,59.70
2018-03-27T16:38:54.316Z,60.30
2018-03-27T16:41:21.901Z,61.30
2018-03-27T16:43:49.384Z,63.30
2018-03-27T16:46:17.684Z,63.10
2018-03-27T16:48:45.153Z,63.10
2018-03-27T16:51:12.647Z,63.70
2018-03-27T16:53:40.155Z,64.10
2018-03-27T16:56:07.686Z,64.90
2018-03-27T16:58:35.105Z,64.90
2018-03-27T17:01:02.737Z,65.60
2018-03-27T17:03:30.289Z,65.90
2018-03-27T17:05:57.783Z,65.90
2018-03-27T17:08:25.260Z,66.30
2018-03-27T17:10:52.730Z,67.10
2018-03-27T17:13:20.988Z,69.10
2018-03-27T17:15:48.438Z,69.10
2018-03-27T17:18:15.925Z,69.30
2018-03-27T17:20:44.153Z,69.70
2018-03-27T17:23:11.638Z,69.60
2018-03-27T17:25:39.231Z,70.10
2018-03-27T17:28:06.706Z,70.30
2018-03-27T17:30:34.213Z,70.60
2018-03-27T17:33:01.821Z,71.30
2018-03-27T17:35:29.281Z,71.10
2018-03-27T17:37:56.772Z,71.20
2018-03-27T17:40:24.245Z,71.50
2018-03-27T17:42:51.862Z,72.30
2018-03-27T17:45:19.355Z,70.90
2018-03-27T17:47:46.832Z,71.10
2018-03-27T17:50:15.086Z,72.70
2018-03-27T17:52:43.341Z,72.70
2018-03-27T17:55:11.742Z,72.70
2018-03-27T17:57:39.224Z,72.60
2018-03-27T18:00:07.474Z,73.30
2018-03-27T18:02:35.004Z,73.20
2018-03-27T18:05:02.465Z,73.60
2018-03-27T18:07:29.956Z,73.50
2018-03-27T18:09:57.414Z,73.50
2018-03-27T18:12:24.897Z,73.40
2018-03-27T18:14:53.168Z,73.80
2018-03-27T18:17:20.636Z,73.80
2018-03-27T18:19:48.209Z,74.40
2018-03-27T18:22:15.726Z,74.60
2018-03-27T18:24:43.288Z,75.20
2018-03-27T18:27:10.783Z,76.30
2018-03-27T18:29:38.315Z,75.90
2018-03-27T18:32:06.568Z,76.00
2018-03-27T18:34:34.066Z,76.00
2018-03-27T18:37:01.554Z,76.40
2018-03-27T18:39:29.028Z,76.60
2018-03-27T18:41:56.507Z,77.20
2018-03-27T18:44:23.972Z,76.50
2018-03-27T18:46:52.221Z,76.80
2018-03-27T18:49:19.698Z,76.70
2018-03-27T18:51:47.976Z,77.20
2018-03-27T18:54:15.530Z,77.30
2018-03-27T18:56:43.071Z,77.60
2018-03-27T18:59:10.630Z,78.00
2018-03-27T19:01:38.897Z,78.80
2018-03-27T19:04:06.392Z,78.80
2018-03-27T19:06:34.629Z,78.80
2018-03-27T19:09:02.225Z,78.80
2018-03-27T19:11:30.494Z,79.90
2018-03-27T19:13:58.069Z,79.90
2018-03-27T19:16:26.490Z,80.60
2018-03-27T19:18:53.975Z,80.60
2018-03-27T19:21:21.457Z,80.80
2018-03-27T19:23:49.725Z,80.30
2018-03-27T19:26:17.201Z,80.30
2018-03-27T19:28:45.454Z,81.20
2018-03-27T19:31:12.920Z,81.20
2018-03-27T19:33:40.409Z,81.60
2018-03-27T19:36:07.874Z,82.00
2018-03-27T19:38:35.363Z,82.40
2018-03-27T19:41:02.833Z,82.20
2018-03-27T19:43:31.118Z,83.10
2018-03-27T19:45:58.928Z,83.10
2018-03-27T19:48:26.421Z,83.10
2018-03-27T19:50:53.907Z,82.60
2018-03-27T19:53:22.319Z,83.10
2018-03-27T19:55:49.812Z,83.10
2018-03-27T19:58:17.400Z,83.10
2018-03-27T20:00:45.641Z,82.90
2018-03-27T20:03:13.132Z,83.40
2018-03-27T20:05:41.353Z,82.90
2018-03-27T20:08:08.928Z,83.00
2018-03-27T20:10:36.400Z,83.30
2018-03-27T20:13:03.909Z,83.60
2018-03-27T20:15:41.702Z,83.60
2018-03-27T20:17:58.906Z,83.60
2018-03-27T20:20:28.129Z,83.60
2018-03-27T20:22:55.637Z,83.60
2018-03-27T20:25:23.096Z,84.10
2018-03-27T20:27:50.569Z,84.70
2018-03-27T20:30:18.972Z,84.90
2018-03-27T20:32:46.508Z,84.60
2018-03-27T20:35:14.782Z,85.40
2018-03-27T20:37:42.495Z,85.30
2018-03-27T20:40:09.969Z,85.70
2018-03-27T20:42:37.577Z,85.40
2018-03-27T20:45:05.828Z,86.50
2018-03-27T20:47:33.303Z,86.50
2018-03-27T20:50:01.534Z,87.20
2018-03-27T20:52:29.031Z,87.10
2018-03-27T20:54:57.278Z,87.90
2018-03-27T20:57:25.056Z,87.60
2018-03-27T20:59:52.574Z,87.10
2018-03-27T21:02:20.188Z,87.80
2018-03-27T21:04:47.657Z,87.90
2018-03-27T21:07:15.176Z,88.60
2018-03-27T21:09:42.684Z,87.30
2018-03-27T21:12:10.952Z,87.40
2018-03-27T21:14:38.429Z,87.30
2018-03-27T21:17:06.662Z,88.40
2018-03-27T21:19:34.145Z,88.30
2018-03-27T21:22:01.604Z,88.50
2018-03-27T21:24:29.884Z,88.60
2018-03-27T21:26:58.161Z,89.50
2018-03-27T21:29:25.671Z,89.40
2018-03-27T21:31:53.218Z,89.40
2018-03-27T21:34:20.697Z,89.70
2018-03-27T21:36:48.182Z,89.40
2018-03-27T21:39:15.691Z,90.10
2018-03-27T21:41:43.149Z,90.10
2018-03-27T21:44:10.727Z,90.30
2018-03-27T21:46:38.189Z,90.10
2018-03-27T21:49:05.677Z,90.40
2018-03-27T21:51:33.146Z,90.50
2018-03-27T21:54:01.401Z,90.90
2018-03-27T21:56:28.872Z,90.60
2018-03-27T21:58:56.371Z,90.40
2018-03-27T22:01:23.911Z,90.50
2018-03-27T22:03:52.309Z,90.40
2018-03-27T22:06:25.746Z,90.40
2018-03-27T22:08:53.266Z,90.30
2018-03-27T22:11:20.790Z,90.20
2018-03-27T22:13:49.051Z,90.50
2018-03-27T22:16:16.616Z,90.50
2018-03-27T22:18:44.100Z,90.40
2018-03-27T22:21:11.574Z,90.80
2018-03-27T22:23:39.078Z,90.50
2018-03-27T22:26:06.553Z,90.30
2018-03-27T22:28:34.863Z,90.80
2018-03-27T22:31:02.340Z,90.40
2018-03-27T22:33:29.850Z,90.50
2018-03-27T22:35:57.314Z,90.40
2018-03-27T22:38:25.561Z,90.40
2018-03-27T22:40:53.030Z,90.40
2018-03-27T22:43:20.511Z,90.50
2018-03-27T22:45:48.737Z,90.00
2018-03-27T22:48:16.212Z,90.00
2018-03-27T22:50:43.681Z,90.10
2018-03-27T22:53:11.924Z,90.50
2018-03-27T22:55:39.389Z,90.40
2018-03-27T22:58:06.876Z,90.00
2018-03-27T23:00:35.109Z,90.40
2018-03-27T23:03:02.603Z,90.40
2018-03-27T23:05:30.889Z,90.60
2018-03-27T23:07:59.953Z,90.50
2018-03-27T23:10:27.409Z,90.50
2018-03-27T23:12:54.901Z,90.50
2018-03-27T23:15:23.138Z,90.70
2018-03-27T23:17:50.627Z,90.60
2018-03-27T23:20:18.867Z,90.70
2018-03-27T23:22:46.393Z,90.70
2018-03-27T23:25:13.857Z,90.60
2018-03-27T23:27:41.326Z,90.90
2018-03-27T23:30:08.809Z,90.90
2018-03-27T23:32:36.270Z,90.90
2018-03-27T23:35:03.877Z,90.80
2018-03-27T23:37:31.435Z,90.80
2018-03-27T23:39:58.915Z,90.70
2018-03-27T23:42:26.382Z,90.70
2018-03-27T23:44:53.886Z,90.70
2018-03-27T23:47:22.133Z,90.70
2018-03-27T23:49:49.638Z,90.70
2018-03-27T23:52:17.121Z,90.80
2018-03-27T23:54:44.617Z,90.60
2018-03-27T23:57:12.093Z,90.70
2018-03-27T23:59:40.389Z,90.80
